Time;durP1;ratioP1;P1;durP2;ratioP2;P2;SDS_P1;SDS_P2;PMS_P1;PMS_P2;Temp;Humidity;BMP_temperature;BMP_pressure;BME280_temperature;BME280_humidity;BME280_pressure;Samples;Min_cycle;Max_cycle;Signal;HPM_P1;HPM_P2
2021/11/03 00:02:10;;;;;;;4.85;2.92;;;7.30;99.90;;;;;;5074112;28;20452;-79
2021/11/03 00:04:38;;;;;;;7.22;3.72;;;7.20;99.90;;;;;;5077795;28;20029;-80
2021/11/03 00:07:04;;;;;;;5.68;4.28;;;7.10;99.90;;;;;;5106090;28;20036;-80
2021/11/03 00:09:31;;;;;;;4.82;3.70;;;7.10;99.90;;;;;;5061163;28;20040;-80
2021/11/03 00:11:58;;;;;;;6.13;3.95;;;7.10;99.90;;;;;;5071762;28;20040;-81
2021/11/03 00:14:23;;;;;;;6.30;4.28;;;6.90;99.90;;;;;;5090065;28;20056;-80
2021/11/03 00:16:49;;;;;;;7.55;3.25;;;6.90;99.90;;;;;;5115741;27;20429;-80
2021/11/03 00:19:15;;;;;;;6.22;4.45;;;6.90;99.90;;;;;;5075507;28;20041;-80
2021/11/03 00:21:41;;;;;;;7.47;4.03;;;6.80;99.90;;;;;;5075281;28;20192;-80
2021/11/03 00:24:07;;;;;;;3.35;3.00;;;6.80;99.90;;;;;;5072318;28;20041;-80
2021/11/03 00:26:33;;;;;;;8.32;4.28;;;6.90;99.90;;;;;;5088127;28;20034;-81
2021/11/03 00:28:58;;;;;;;12.98;4.15;;;6.90;99.90;;;;;;5104068;28;20055;-80
2021/11/03 00:31:27;;;;;;;8.82;3.67;;;7.00;99.90;;;;;;5072973;28;20041;-79
2021/11/03 00:33:53;;;;;;;5.38;3.20;;;6.90;99.90;;;;;;5113176;27;20040;-81
2021/11/03 00:36:18;;;;;;;4.45;3.92;;;6.90;99.90;;;;;;5083272;28;20045;-80
2021/11/03 00:38:44;;;;;;;7.10;3.97;;;6.90;99.90;;;;;;5072547;28;20461;-80
2021/11/03 00:41:10;;;;;;;8.93;3.75;;;6.90;99.90;;;;;;5100747;28;20048;-80
2021/11/03 00:43:36;;;;;;;10.40;3.95;;;6.90;99.90;;;;;;5101889;28;20043;-81
2021/11/03 00:46:02;;;;;;;5.07;4.50;;;7.00;99.90;;;;;;5113058;27;20041;-80
2021/11/03 00:48:28;;;;;;;8.52;4.65;;;7.00;99.90;;;;;;5087770;28;20408;-80
2021/11/03 00:50:54;;;;;;;5.45;3.45;;;7.00;99.90;;;;;;5108316;27;20070;-80
2021/11/03 00:53:20;;;;;;;6.35;3.50;;;7.10;99.90;;;;;;5096956;28;20050;-82
2021/11/03 00:55:46;;;;;;;5.30;3.63;;;7.00;99.90;;;;;;5106711;28;20098;-80
2021/11/03 00:58:12;;;;;;;4.40;3.88;;;7.00;99.90;;;;;;5067147;28;20477;-81
2021/11/03 01:00:38;;;;;;;5.65;3.88;;;7.00;99.90;;;;;;5113378;27;20089;-82
2021/11/03 01:03:05;;;;;;;4.57;4.03;;;7.10;99.90;;;;;;5071211;28;20029;-80
2021/11/03 01:05:31;;;;;;;4.72;4.15;;;7.00;99.90;;;;;;5055176;28;20474;-80
2021/11/03 01:07:57;;;;;;;10.50;4.63;;;7.00;99.90;;;;;;5090057;28;20044;-80
2021/11/03 01:10:27;;;;;;;5.10;3.42;;;7.00;99.90;;;;;;5099469;28;20074;-80
2021/11/03 01:12:53;;;;;;;6.05;4.97;;;7.10;99.90;;;;;;5078484;28;20509;-80
2021/11/03 01:15:22;;;;;;;4.65;2.83;;;7.20;99.90;;;;;;5112370;27;20056;-80
2021/11/03 01:17:48;;;;;;;4.60;4.18;;;7.10;99.90;;;;;;5105770;28;20051;-81
2021/11/03 01:20:14;;;;;;;;;;;7.10;99.90;;;;;;5105045;27;20059;-78
2021/11/03 01:22:41;;;;;;;2.60;2.08;;;7.10;99.90;;;;;;5085560;28;20309;-78
2021/11/03 01:25:09;;;;;;;6.57;3.80;;;7.10;99.90;;;;;;5114862;27;20040;-81
2021/11/03 01:27:35;;;;;;;3.80;3.42;;;7.10;99.90;;;;;;5072214;28;20429;-80
2021/11/03 01:30:10;;;;;;;4.93;3.58;;;7.20;99.90;;;;;;5068752;28;20057;-80
2021/11/03 01:32:36;;;;;;;4.15;3.75;;;7.10;99.90;;;;;;5102276;28;20094;-79
2021/11/03 01:35:03;;;;;;;;;;;7.10;99.90;;;;;;5104877;28;20056;-80
2021/11/03 01:37:29;;;;;;;4.05;2.78;;;7.20;99.90;;;;;;5084646;28;19931;-79
2021/11/03 01:39:55;;;;;;;14.75;2.92;;;7.10;99.90;;;;;;5096501;28;20425;-81
2021/11/03 01:42:21;;;;;;;4.28;2.88;;;7.20;99.90;;;;;;5069395;28;20486;-81
2021/11/03 01:44:46;;;;;;;9.13;4.35;;;7.10;99.90;;;;;;5058190;28;20348;-82
2021/11/03 01:47:34;;;;;;;4.88;3.08;;;7.10;99.90;;;;;;5103628;28;20143;-80
2021/11/03 01:50:01;;;;;;;5.25;3.13;;;7.10;99.90;;;;;;5097572;27;20454;-81
2021/11/03 01:52:27;;;;;;;6.63;2.22;;;7.20;99.90;;;;;;5104427;28;20040;-81
2021/11/03 01:54:56;;;;;;;3.75;2.75;;;7.10;99.90;;;;;;5088141;28;20435;-80
2021/11/03 01:57:29;;;;;;;3.63;3.28;;;7.10;99.90;;;;;;5066907;28;20049;-79
2021/11/03 01:59:58;;;;;;;6.57;2.80;;;7.10;99.90;;;;;;5070955;28;20036;-81
2021/11/03 02:02:25;;;;;;;3.45;2.13;;;7.10;99.90;;;;;;5069505;28;20048;-83
2021/11/03 02:04:51;;;;;;;7.38;3.63;;;7.10;99.90;;;;;;5070881;28;20536;-81
2021/11/03 02:07:25;;;;;;;7.80;2.60;;;7.10;99.90;;;;;;5059794;28;20037;-82
2021/11/03 02:09:51;;;;;;;5.07;3.17;;;7.10;99.90;;;;;;5072327;28;20043;-81
2021/11/03 02:12:18;;;;;;;3.42;2.83;;;7.10;99.90;;;;;;5052756;28;20045;-81
2021/11/03 02:14:45;;;;;;;3.25;2.20;;;7.10;99.90;;;;;;5070457;28;20120;-80
2021/11/03 02:17:13;;;;;;;2.42;2.08;;;7.10;99.90;;;;;;5070492;28;20044;-81
2021/11/03 02:19:38;;;;;;;6.95;3.15;;;7.10;99.90;;;;;;5087739;28;20437;-81
2021/11/03 02:22:22;;;;;;;3.85;3.00;;;7.10;99.90;;;;;;5068341;28;20035;-80
2021/11/03 02:24:54;;;;;;;3.80;2.30;;;7.10;99.90;;;;;;5085455;28;20076;-81
2021/11/03 02:27:25;;;;;;;2.38;1.52;;;7.10;99.90;;;;;;5086029;28;20460;-81
2021/11/03 02:29:51;;;;;;;3.80;2.92;;;7.00;99.90;;;;;;5068482;28;20091;-82
2021/11/03 02:32:20;;;;;;;;;;;7.00;99.90;;;;;;5106203;28;20048;-80
2021/11/03 02:34:47;;;;;;;3.95;1.63;;;7.00;99.90;;;;;;5069568;28;19959;-81
2021/11/03 02:37:28;;;;;;;4.78;3.22;;;7.00;99.90;;;;;;5094716;28;20044;-81
2021/11/03 02:40:07;;;;;;;2.50;2.28;;;7.00;99.90;;;;;;5096685;27;20049;-82
2021/11/03 02:42:37;;;;;;;2.55;1.88;;;7.00;99.90;;;;;;5068162;28;20037;-81
2021/11/03 02:45:12;;;;;;;4.03;2.35;;;7.10;99.90;;;;;;5102439;28;20170;-81
2021/11/03 02:47:38;;;;;;;2.33;2.10;;;7.00;99.90;;;;;;5083787;28;20048;-78
2021/11/03 02:50:09;;;;;;;3.22;2.40;;;7.00;99.90;;;;;;5065071;28;20041;-80
2021/11/03 02:52:36;;;;;;;1.98;1.83;;;7.00;99.90;;;;;;5103992;28;20040;-81
2021/11/03 02:55:06;;;;;;;3.30;1.90;;;7.00;99.90;;;;;;5064952;28;20043;-80
2021/11/03 02:57:32;;;;;;;2.85;2.25;;;7.00;99.90;;;;;;5067953;28;20036;-80
2021/11/03 02:59:58;;;;;;;3.65;2.80;;;7.00;99.90;;;;;;5095509;28;20489;-80
2021/11/03 03:02:23;;;;;;;1.55;1.45;;;7.00;99.90;;;;;;5105810;28;20040;-80
2021/11/03 03:04:54;;;;;;;4.20;3.00;;;7.00;99.90;;;;;;5069061;28;20032;-81
2021/11/03 03:07:20;;;;;;;3.58;1.75;;;6.90;99.90;;;;;;5066925;28;20189;-80
2021/11/03 03:09:46;;;;;;;2.30;2.10;;;6.90;99.90;;;;;;5063839;28;20032;-80
2021/11/03 03:12:14;;;;;;;;;;;7.00;99.90;;;;;;5069389;28;20097;-82
2021/11/03 03:14:42;;;;;;;5.65;1.60;;;7.00;99.90;;;;;;5068527;28;19916;-81
2021/11/03 03:17:10;;;;;;;1.40;1.23;;;6.90;99.90;;;;;;5103033;28;20104;-81
2021/11/03 03:19:37;;;;;;;1.60;1.50;;;6.90;99.90;;;;;;5085657;28;20506;-81
2021/11/03 03:22:03;;;;;;;3.50;1.73;;;6.90;99.90;;;;;;5103018;28;20036;-80
2021/11/03 03:24:29;;;;;;;2.10;1.73;;;6.90;99.90;;;;;;5067076;28;20036;-81
2021/11/03 03:26:55;;;;;;;1.83;1.50;;;6.90;99.90;;;;;;5107900;28;20488;-81
2021/11/03 03:29:21;;;;;;;3.22;2.53;;;7.00;99.90;;;;;;5068920;28;20101;-81
2021/11/03 03:31:47;;;;;;;2.67;1.75;;;6.90;99.90;;;;;;5091397;28;20355;-80
2021/11/03 03:34:17;;;;;;;3.17;2.38;;;6.90;99.90;;;;;;5106152;28;20033;-79
2021/11/03 03:36:45;;;;;;;3.88;2.08;;;7.00;99.90;;;;;;5092226;28;20105;-80
2021/11/03 03:39:12;;;;;;;3.35;1.95;;;6.90;99.90;;;;;;5057529;28;20053;-80
2021/11/03 03:41:39;;;;;;;2.20;2.00;;;6.90;99.90;;;;;;5075107;28;20099;-79
2021/11/03 03:44:07;;;;;;;3.08;2.72;;;6.90;99.90;;;;;;5107504;28;20043;-80
2021/11/03 03:46:32;;;;;;;1.95;1.60;;;6.80;99.90;;;;;;5108576;28;20068;-81
2021/11/03 03:48:58;;;;;;;7.15;2.58;;;6.90;99.90;;;;;;5092049;28;20076;-81
2021/11/03 03:51:25;;;;;;;4.55;2.10;;;6.80;99.90;;;;;;5111739;27;20139;-83
2021/11/03 03:53:51;;;;;;;2.13;1.88;;;6.80;99.90;;;;;;5071146;28;20055;-80
2021/11/03 03:56:18;;;;;;;7.28;1.50;;;6.80;99.90;;;;;;5107175;28;20040;-79
2021/11/03 03:58:45;;;;;;;1.92;1.65;;;6.80;99.90;;;;;;5080556;28;20558;-79
2021/11/03 04:01:13;;;;;;;3.88;1.77;;;6.90;99.90;;;;;;5106521;28;20036;-82
2021/11/03 04:03:38;;;;;;;1.52;1.20;;;6.80;99.90;;;;;;5107040;28;20115;-81
2021/11/03 04:06:04;;;;;;;2.05;1.67;;;6.80;99.90;;;;;;5073182;28;20128;-82
2021/11/03 04:08:30;;;;;;;2.00;1.80;;;6.80;99.90;;;;;;5058544;28;20040;-82
2021/11/03 04:10:56;;;;;;;1.42;1.33;;;6.70;99.90;;;;;;5074239;28;20048;-82
2021/11/03 04:13:23;;;;;;;1.77;1.50;;;6.80;99.90;;;;;;5106829;28;20055;-81
2021/11/03 04:15:48;;;;;;;1.98;1.30;;;6.70;99.90;;;;;;5105736;28;20485;-81
2021/11/03 04:18:14;;;;;;;1.67;1.45;;;6.80;99.90;;;;;;5074156;28;20048;-81
2021/11/03 04:20:40;;;;;;;2.35;2.15;;;6.80;99.90;;;;;;5069796;28;20036;-81
2021/11/03 04:23:06;;;;;;;1.40;1.30;;;6.70;99.90;;;;;;5072346;28;20109;-82
2021/11/03 04:25:32;;;;;;;2.83;1.70;;;6.70;99.90;;;;;;5099804;28;20048;-83
2021/11/03 04:27:58;;;;;;;2.10;1.67;;;7.00;99.90;;;;;;5069585;28;20554;-82
2021/11/03 04:30:26;;;;;;;1.95;1.70;;;6.60;99.90;;;;;;5065697;28;20091;-80
2021/11/03 04:32:52;;;;;;;2.25;2.05;;;6.60;99.90;;;;;;5103231;27;20117;-80
2021/11/03 04:35:18;;;;;;;1.35;1.25;;;6.60;99.90;;;;;;5104607;28;20078;-80
2021/11/03 04:37:44;;;;;;;2.30;1.70;;;6.60;99.90;;;;;;5089120;28;20076;-79
2021/11/03 04:40:15;;;;;;;4.75;1.63;;;6.60;99.90;;;;;;5113771;27;20048;-81
2021/11/03 04:42:40;;;;;;;3.30;1.92;;;6.50;99.90;;;;;;5108172;27;20078;-81
2021/11/03 04:45:07;;;;;;;1.60;1.50;;;6.40;99.90;;;;;;5064218;28;20560;-81
2021/11/03 04:47:32;;;;;;;2.97;2.40;;;6.40;99.90;;;;;;5071696;28;20047;-82
2021/11/03 04:49:59;;;;;;;3.50;2.25;;;6.40;99.90;;;;;;5103438;27;20120;-81
2021/11/03 04:52:25;;;;;;;1.48;1.38;;;6.30;99.90;;;;;;5079009;28;20367;-82
2021/11/03 04:54:53;;;;;;;3.53;3.00;;;6.30;99.90;;;;;;5064896;28;20094;-80
2021/11/03 04:57:20;;;;;;;3.17;2.00;;;6.20;99.90;;;;;;5091420;28;20109;-81
2021/11/03 04:59:52;;;;;;;2.20;1.63;;;6.10;99.90;;;;;;5051884;28;20037;-80
2021/11/03 05:02:17;;;;;;;1.83;1.38;;;6.00;99.90;;;;;;5072205;28;20073;-79
2021/11/03 05:04:43;;;;;;;1.95;1.85;;;5.90;99.90;;;;;;5104378;28;20393;-80
2021/11/03 05:07:10;;;;;;;4.03;2.75;;;6.00;99.90;;;;;;5102263;28;20099;-81
2021/11/03 05:09:36;;;;;;;11.20;1.77;;;5.80;99.90;;;;;;5089473;28;20048;-79
2021/11/03 05:12:02;;;;;;;3.45;2.10;;;5.70;99.90;;;;;;5084091;28;20486;-81
2021/11/03 05:14:28;;;;;;;;;;;5.60;99.90;;;;;;5065817;28;20485;-80
2021/11/03 05:16:55;;;;;;;4.25;1.73;;;5.50;99.90;;;;;;5097325;28;19923;-81
2021/11/03 05:19:25;;;;;;;2.08;1.75;;;5.50;99.90;;;;;;5102281;27;20081;-80
2021/11/03 05:21:52;;;;;;;1.63;1.52;;;5.30;99.90;;;;;;5098650;28;20033;-81
2021/11/03 05:24:19;;;;;;;4.00;1.83;;;5.30;99.90;;;;;;5080068;28;20056;-81
2021/11/03 05:26:45;;;;;;;2.25;1.65;;;5.30;99.90;;;;;;5067833;28;20040;-80
2021/11/03 05:29:12;;;;;;;2.85;2.13;;;5.20;99.90;;;;;;5067812;28;20028;-81
2021/11/03 05:31:38;;;;;;;3.10;1.70;;;5.20;99.90;;;;;;5072501;28;20040;-81
2021/11/03 05:34:04;;;;;;;1.45;1.35;;;5.20;99.90;;;;;;5096013;27;20110;-81
2021/11/03 05:36:30;;;;;;;4.22;2.17;;;5.20;99.90;;;;;;5068297;28;20124;-81
2021/11/03 05:39:02;;;;;;;2.00;1.83;;;5.10;99.90;;;;;;5071684;28;20059;-81
2021/11/03 05:41:28;;;;;;;2.65;2.35;;;5.30;99.90;;;;;;5079277;28;20052;-81
2021/11/03 05:43:53;;;;;;;4.53;2.25;;;5.30;99.90;;;;;;5074131;28;20133;-81
2021/11/03 05:46:25;;;;;;;2.88;1.75;;;5.10;99.90;;;;;;5087774;28;20075;-81
2021/11/03 05:48:52;;;;;;;2.38;1.90;;;5.10;99.90;;;;;;5099910;28;20047;-81
2021/11/03 05:51:19;;;;;;;1.33;1.23;;;5.10;99.90;;;;;;5103642;28;20040;-84
2021/11/03 05:53:46;;;;;;;3.10;1.90;;;5.20;99.90;;;;;;5058675;28;20041;-81
2021/11/03 05:56:12;;;;;;;2.35;2.17;;;5.20;99.90;;;;;;5070285;28;20393;-81
2021/11/03 05:58:38;;;;;;;3.67;2.10;;;5.20;99.90;;;;;;5078449;28;20045;-82
2021/11/03 06:01:08;;;;;;;3.55;2.40;;;5.30;99.90;;;;;;5070817;28;20378;-81
2021/11/03 06:03:34;;;;;;;3.65;1.65;;;5.50;99.90;;;;;;5107419;27;20119;-80
2021/11/03 06:06:00;;;;;;;;;;;5.30;99.90;;;;;;5104789;28;20519;-80
2021/11/03 06:08:26;;;;;;;2.05;1.88;;;5.20;99.90;;;;;;5062538;28;19916;-82
2021/11/03 06:10:53;;;;;;;1.90;1.35;;;5.20;99.90;;;;;;5101997;28;20051;-79
2021/11/03 06:13:20;;;;;;;4.57;2.95;;;5.20;99.90;;;;;;5088626;28;20052;-82
2021/11/03 06:15:46;;;;;;;7.78;2.78;;;5.70;99.90;;;;;;5090995;28;20072;-82
2021/11/03 06:18:12;;;;;;;2.65;2.22;;;5.20;99.90;;;;;;5071581;28;20481;-82
2021/11/03 06:20:41;;;;;;;2.70;2.10;;;5.20;99.90;;;;;;5069815;28;20119;-82
2021/11/03 06:23:07;;;;;;;5.30;4.18;;;5.20;99.90;;;;;;5065376;28;20120;-82
2021/11/03 06:25:34;;;;;;;3.05;2.72;;;5.20;99.90;;;;;;5070013;28;20032;-82
2021/11/03 06:28:01;;;;;;;6.57;4.72;;;5.20;99.90;;;;;;5066321;28;20409;-79
2021/11/03 06:30:31;;;;;;;4.45;2.97;;;5.20;99.90;;;;;;5060603;28;20049;-80
2021/11/03 06:32:58;;;;;;;5.20;3.78;;;5.20;99.90;;;;;;5101943;27;20041;-81
2021/11/03 06:35:24;;;;;;;5.55;3.83;;;5.30;99.90;;;;;;5103352;28;20083;-80
2021/11/03 06:37:51;;;;;;;3.60;2.22;;;5.30;99.90;;;;;;5066841;28;20110;-79
2021/11/03 06:40:20;;;;;;;4.60;3.20;;;5.30;99.90;;;;;;5102427;28;20055;-80
2021/11/03 06:42:45;;;;;;;11.88;5.00;;;5.30;99.90;;;;;;5072340;28;20036;-81
2021/11/03 06:45:13;;;;;;;5.07;3.65;;;5.30;99.90;;;;;;5068350;28;20047;-79
2021/11/03 06:47:39;;;;;;;5.72;3.35;;;5.50;99.90;;;;;;5084094;28;20106;-81
2021/11/03 06:50:07;;;;;;;6.80;3.78;;;5.40;99.90;;;;;;5103859;28;20462;-81
2021/11/03 06:52:34;;;;;;;9.35;4.15;;;5.40;99.90;;;;;;5050821;28;20068;-80
2021/11/03 06:55:00;;;;;;;5.18;3.22;;;5.40;99.90;;;;;;5061781;28;20103;-80
2021/11/03 06:57:26;;;;;;;9.52;4.65;;;5.40;99.90;;;;;;5095147;28;20044;-80
2021/11/03 06:59:53;;;;;;;4.50;4.15;;;5.40;99.90;;;;;;5071147;28;20122;-80
2021/11/03 07:02:19;;;;;;;6.20;4.70;;;5.40;99.90;;;;;;5071392;28;20397;-80
2021/11/03 07:04:45;;;;;;;5.43;4.40;;;5.50;99.90;;;;;;5103144;28;20044;-80
2021/11/03 07:07:11;;;;;;;5.45;4.72;;;5.50;99.90;;;;;;5069637;28;20043;-80
2021/11/03 07:09:37;;;;;;;6.68;4.10;;;5.50;99.90;;;;;;5061128;28;20044;-80
2021/11/03 07:12:04;;;;;;;13.63;4.80;;;5.50;99.90;;;;;;5069062;28;20470;-80
2021/11/03 07:14:29;;;;;;;7.03;3.28;;;5.50;99.90;;;;;;5077910;28;20516;-79
2021/11/03 07:16:55;;;;;;;7.35;3.53;;;5.50;99.90;;;;;;5101454;28;20036;-79
2021/11/03 07:19:21;;;;;;;9.05;4.97;;;5.50;99.90;;;;;;5056933;28;20388;-81
2021/11/03 07:21:47;;;;;;;5.40;3.45;;;5.60;99.90;;;;;;5076723;28;20048;-81
2021/11/03 07:24:13;;;;;;;5.07;4.38;;;5.60;99.90;;;;;;5074890;28;20379;-81
2021/11/03 07:26:43;;;;;;;6.22;3.85;;;5.60;99.90;;;;;;5096391;28;20041;-81
2021/11/03 07:29:10;;;;;;;5.85;4.05;;;5.60;99.90;;;;;;5064511;28;20075;-80
2021/11/03 07:31:36;;;;;;;8.82;5.40;;;5.70;99.90;;;;;;5095006;28;20037;-81
2021/11/03 07:34:02;;;;;;;14.68;5.43;;;5.70;99.90;;;;;;5101451;28;20464;-81
2021/11/03 07:36:30;;;;;;;5.30;4.03;;;5.70;99.90;;;;;;5074599;28;20361;-80
2021/11/03 07:38:56;;;;;;;8.05;5.07;;;5.80;99.90;;;;;;5078845;28;20498;-81
2021/11/03 07:41:22;;;;;;;5.38;3.47;;;5.80;99.90;;;;;;5082116;28;20571;-80
2021/11/03 07:43:49;;;;;;;;;;;5.80;99.90;;;;;;5065310;28;20044;-81
2021/11/03 07:46:15;;;;;;;2.93;2.43;;;5.80;99.90;;;;;;5065922;28;20251;-81
2021/11/03 07:48:41;;;;;;;12.00;5.68;;;5.80;99.90;;;;;;5062650;28;20111;-81
2021/11/03 07:51:11;;;;;;;4.18;3.78;;;5.80;99.90;;;;;;5088072;28;20539;-82
2021/11/03 07:53:37;;;;;;;6.93;4.90;;;5.80;99.90;;;;;;5063100;28;20045;-82
2021/11/03 07:56:07;;;;;;;9.65;3.83;;;5.90;99.90;;;;;;5095274;28;20052;-81
2021/11/03 07:58:37;;;;;;;9.65;6.07;;;5.80;99.90;;;;;;5096219;28;20044;-82
2021/11/03 08:01:05;;;;;;;7.57;4.68;;;5.80;99.90;;;;;;5091488;28;20120;-81
2021/11/03 08:03:31;;;;;;;3.60;3.20;;;6.00;99.90;;;;;;5065374;28;20113;-81
2021/11/03 08:05:57;;;;;;;23.63;5.18;;;6.00;99.90;;;;;;5097787;28;20497;-82
2021/11/03 08:08:26;;;;;;;9.75;5.53;;;6.00;99.90;;;;;;5062616;28;20094;-82
2021/11/03 08:10:56;;;;;;;10.23;3.85;;;6.00;99.90;;;;;;5094119;28;20044;-81
2021/11/03 08:13:26;;;;;;;4.93;3.55;;;6.00;99.90;;;;;;5101740;28;20091;-81
2021/11/03 08:15:54;;;;;;;9.77;4.05;;;5.90;99.90;;;;;;5093100;28;20076;-81
2021/11/03 08:18:24;;;;;;;7.28;3.88;;;5.80;99.90;;;;;;5097893;28;20077;-81
2021/11/03 08:20:50;;;;;;;6.88;6.18;;;5.80;99.90;;;;;;5058438;28;20048;-81
2021/11/03 08:23:16;;;;;;;14.82;5.80;;;5.70;99.90;;;;;;5082671;28;20097;-81
2021/11/03 08:25:42;;;;;;;;;;;5.70;99.90;;;;;;5065511;28;20402;-82
2021/11/03 08:28:09;;;;;;;5.90;4.40;;;5.70;99.90;;;;;;5100536;28;19924;-81
2021/11/03 08:30:35;;;;;;;13.45;5.82;;;5.70;99.90;;;;;;5066728;28;20054;-81
2021/11/03 08:33:09;;;;;;;6.40;4.47;;;5.70;99.90;;;;;;5079665;28;20045;-81
2021/11/03 08:35:37;;;;;;;7.63;5.15;;;5.80;99.90;;;;;;5102071;28;20040;-81
2021/11/03 08:38:06;;;;;;;8.05;5.55;;;5.80;99.90;;;;;;5069165;28;20044;-81
2021/11/03 08:40:34;;;;;;;5.00;4.50;;;5.80;99.90;;;;;;5094996;28;20411;-81
2021/11/03 08:43:02;;;;;;;7.32;5.30;;;5.80;99.90;;;;;;5063822;28;20166;-81
2021/11/03 08:45:29;;;;;;;8.25;6.30;;;5.80;99.90;;;;;;5066928;28;20517;-81
2021/11/03 08:47:55;;;;;;;9.65;6.43;;;5.90;99.90;;;;;;5066475;28;20040;-81
2021/11/03 08:50:26;;;;;;;10.18;5.50;;;5.90;99.90;;;;;;5094853;28;20043;-81
2021/11/03 08:52:52;;;;;;;9.75;6.00;;;5.90;99.90;;;;;;5080225;28;20044;-81
2021/11/03 08:55:18;;;;;;;8.90;5.25;;;5.80;99.90;;;;;;5069716;28;20114;-80
2021/11/03 08:57:44;;;;;;;;;;;5.90;99.90;;;;;;5102952;28;20550;-81
2021/11/03 09:00:17;;;;;;;5.80;5.20;;;5.90;99.90;;;;;;5064593;28;19924;-81
2021/11/03 09:02:42;;;;;;;6.28;4.72;;;5.90;99.90;;;;;;5067660;28;20504;-81
2021/11/03 09:05:08;;;;;;;5.15;4.45;;;6.00;99.90;;;;;;5103136;28;20136;-81
2021/11/03 09:07:35;;;;;;;;;;;6.00;99.90;;;;;;5073819;28;20084;-81
2021/11/03 09:10:07;;;;;;;5.65;3.28;;;6.10;99.90;;;;;;5100231;28;19920;-81
2021/11/03 09:12:33;;;;;;;6.55;4.38;;;6.10;99.90;;;;;;5102186;28;20044;-81
2021/11/03 09:15:00;;;;;;;16.42;5.93;;;6.10;99.90;;;;;;5085397;28;20098;-81
2021/11/03 09:17:27;;;;;;;8.20;4.50;;;6.20;99.90;;;;;;5051316;28;20386;-81
2021/11/03 09:19:54;;;;;;;7.25;5.07;;;6.20;99.90;;;;;;5067644;28;20063;-81
2021/11/03 09:22:20;;;;;;;7.00;5.38;;;6.20;99.90;;;;;;5101614;28;20036;-81
2021/11/03 09:24:46;;;;;;;3.85;3.50;;;6.20;99.90;;;;;;5071315;28;20047;-81
2021/11/03 09:27:15;;;;;;;11.35;6.25;;;6.30;99.90;;;;;;5102438;28;20150;-81
2021/11/03 09:29:46;;;;;;;11.80;4.13;;;6.30;99.90;;;;;;5068446;28;20053;-81
2021/11/03 09:32:14;;;;;;;8.20;5.18;;;6.30;99.90;;;;;;5060606;28;20529;-81
2021/11/03 09:34:42;;;;;;;7.68;5.25;;;6.40;99.90;;;;;;5068151;28;20124;-81
2021/11/03 09:37:09;;;;;;;13.77;8.15;;;6.40;99.90;;;;;;5050424;28;20033;-82
2021/11/03 09:39:35;;;;;;;12.38;6.43;;;6.60;99.90;;;;;;5067405;28;20057;-81
2021/11/03 09:42:02;;;;;;;13.80;6.05;;;6.70;99.90;;;;;;5101384;28;20106;-81
2021/11/03 09:44:36;;;;;;;8.15;5.38;;;6.80;99.90;;;;;;5065819;28;20048;-82
2021/11/03 09:47:24;;;;;;;13.38;6.32;;;6.90;99.90;;;;;;5068317;28;20428;-81
2021/11/03 09:49:58;;;;;;;12.98;5.65;;;6.90;99.90;;;;;;5087481;28;20051;-81
2021/11/03 09:52:28;;;;;;;16.30;8.77;;;6.90;99.90;;;;;;5063346;28;20050;-81
2021/11/03 09:55:00;;;;;;;5.68;3.75;;;6.80;99.90;;;;;;5099985;28;20044;-81
2021/11/03 09:57:47;;;;;;;7.80;6.10;;;6.90;99.90;;;;;;5057479;28;20044;-82
2021/11/03 10:00:37;;;;;;;5.45;4.93;;;7.00;99.90;;;;;;5095218;28;20036;-81
2021/11/03 10:03:28;;;;;;;8.95;5.18;;;7.10;99.90;;;;;;5101048;28;20464;-82
2021/11/03 10:06:07;;;;;;;13.73;7.70;;;7.10;99.90;;;;;;5062695;28;20478;-81
2021/11/03 10:08:40;;;;;;;9.52;4.93;;;7.10;99.90;;;;;;5069277;28;20144;-81
2021/11/03 10:11:20;;;;;;;9.63;6.47;;;7.20;99.90;;;;;;5076217;28;20421;-81
2021/11/03 10:13:47;;;;;;;7.85;5.28;;;7.30;99.90;;;;;;5092712;28;20420;-79
2021/11/03 10:16:13;;;;;;;13.70;6.05;;;7.20;99.90;;;;;;5081336;28;20040;-79
2021/11/03 10:19:05;;;;;;;8.23;7.43;;;7.20;99.90;;;;;;5097398;28;20067;-80
2021/11/03 10:21:30;;;;;;;9.70;4.20;;;7.20;99.90;;;;;;5075381;28;20044;-79
2021/11/03 10:24:11;;;;;;;6.28;4.15;;;7.20;99.90;;;;;;5065712;28;20049;-79
2021/11/03 10:26:51;;;;;;;9.95;5.05;;;7.20;99.90;;;;;;5064270;28;20051;-79
2021/11/03 10:29:48;;;;;;;14.85;6.85;;;7.10;99.90;;;;;;5062977;28;20414;-79
2021/11/03 10:32:40;;;;;;;8.02;5.53;;;7.00;99.90;;;;;;5046895;28;20110;-79
2021/11/03 10:35:35;;;;;;;6.97;4.68;;;7.00;99.90;;;;;;5064914;28;20051;-79
2021/11/03 10:38:22;;;;;;;9.70;4.72;;;7.10;99.90;;;;;;5065847;28;20044;-78
2021/11/03 10:40:48;;;;;;;24.25;8.02;;;7.20;99.90;;;;;;5070115;28;20045;-79
2021/11/03 10:43:28;;;;;;;7.50;5.72;;;7.30;99.90;;;;;;5071089;28;20119;-79
2021/11/03 10:46:26;;;;;;;9.77;5.40;;;7.30;99.90;;;;;;5094316;28;20036;-78
2021/11/03 10:49:37;;;;;;;11.93;6.70;;;7.30;99.90;;;;;;5083638;28;20102;-78
2021/11/03 10:52:09;;;;;;;6.57;4.47;;;7.20;99.90;;;;;;5064196;28;20121;-79
2021/11/03 10:55:09;;;;;;;8.07;5.25;;;7.20;99.90;;;;;;5092554;28;20044;-79
2021/11/03 10:57:39;;;;;;;7.45;6.53;;;7.40;99.90;;;;;;5087172;28;20056;-80
2021/11/03 11:00:27;;;;;;;7.40;4.93;;;8.10;99.90;;;;;;5094244;28;20074;-79
2021/11/03 11:03:01;;;;;;;7.63;6.53;;;7.80;99.90;;;;;;5098045;28;20044;-80
2021/11/03 11:05:31;;;;;;;12.23;6.18;;;8.00;99.90;;;;;;5095247;28;20044;-79
2021/11/03 11:08:15;;;;;;;12.82;6.32;;;8.20;99.90;;;;;;5098086;28;20453;-80
2021/11/03 11:10:51;;;;;;;13.80;5.70;;;8.20;99.90;;;;;;5065001;28;20448;-79
2021/11/03 11:13:22;;;;;;;9.88;5.63;;;8.20;99.90;;;;;;5097446;28;20087;-79
2021/11/03 11:16:12;;;;;;;7.20;5.38;;;8.20;99.90;;;;;;5076439;28;20045;-79
2021/11/03 11:18:55;;;;;;;6.97;4.60;;;8.20;99.90;;;;;;5061087;28;20045;-78
2021/11/03 11:21:59;;;;;;;10.52;5.07;;;8.30;99.90;;;;;;5096957;28;20794;-78
2021/11/03 11:24:44;;;;;;;13.27;5.65;;;8.40;99.90;;;;;;5089733;28;20040;-79
2021/11/03 11:27:35;;;;;;;5.95;4.90;;;8.30;99.90;;;;;;5077691;28;20397;-79
2021/11/03 11:30:14;;;;;;;5.72;5.18;;;8.30;99.90;;;;;;5085834;28;20137;-78
2021/11/03 11:32:43;;;;;;;9.80;4.63;;;8.30;99.90;;;;;;5101334;28;20405;-79
2021/11/03 11:35:25;;;;;;;7.22;5.22;;;8.30;99.90;;;;;;5075300;28;20143;-79
2021/11/03 11:38:11;;;;;;;7.05;4.80;;;8.30;99.90;;;;;;5061996;28;20032;-79
2021/11/03 11:40:48;;;;;;;8.32;5.55;;;8.30;99.90;;;;;;5100016;28;20165;-79
2021/11/03 11:43:37;;;;;;;8.27;4.70;;;8.50;99.90;;;;;;5037099;28;20048;-79
2021/11/03 11:46:19;;;;;;;9.13;4.78;;;8.70;99.90;;;;;;5045554;28;20047;-79
2021/11/03 11:48:46;;;;;;;10.43;6.22;;;;;;;;;;5090524;28;20101;-77
2021/11/03 11:51:34;;;;;;;9.82;5.28;;;8.80;99.90;;;;;;5074601;28;20134;-80
2021/11/03 11:54:02;;;;;;;7.18;5.13;;;8.80;99.90;;;;;;5104007;28;21058;-80
2021/11/03 11:56:31;;;;;;;11.40;6.10;;;8.80;99.90;;;;;;5099429;28;20040;-80
2021/11/03 11:59:20;;;;;;;6.90;5.85;;;8.80;99.90;;;;;;5097360;27;20132;-80
2021/11/03 12:01:49;;;;;;;6.63;4.07;;;8.80;99.90;;;;;;5071193;28;20036;-79
2021/11/03 12:04:23;;;;;;;8.35;5.95;;;8.80;99.90;;;;;;5104132;27;20044;-79
2021/11/03 12:06:52;;;;;;;6.15;5.05;;;8.80;99.90;;;;;;5065937;28;20066;-79
2021/11/03 12:09:21;;;;;;;16.00;7.63;;;8.80;99.90;;;;;;5103517;28;20040;-80
2021/11/03 12:11:59;;;;;;;13.30;6.93;;;8.80;99.90;;;;;;5069343;28;20076;-79
2021/11/03 12:15:02;;;;;;;8.48;5.15;;;9.00;99.90;;;;;;5105096;27;20047;-79
2021/11/03 12:18:00;;;;;;;10.90;5.88;;;9.10;99.90;;;;;;5087237;28;20048;-78
2021/11/03 12:20:28;;;;;;;8.07;4.55;;;9.30;99.90;;;;;;5064220;28;20073;-78
2021/11/03 12:23:03;;;;;;;9.15;5.90;;;9.60;99.90;;;;;;5098031;28;20417;-79
2021/11/03 12:25:29;;;;;;;9.02;5.47;;;9.60;99.90;;;;;;5086754;28;20288;-79
2021/11/03 12:28:09;;;;;;;11.25;5.50;;;9.60;99.90;;;;;;5070721;28;20133;-79
2021/11/03 12:30:37;;;;;;;9.68;6.70;;;9.50;99.90;;;;;;5099798;27;20052;-78
2021/11/03 12:33:13;;;;;;;10.18;6.32;;;9.50;99.90;;;;;;5104962;28;20154;-78
2021/11/03 12:35:39;;;;;;;13.43;5.93;;;9.40;99.90;;;;;;5065417;28;20250;-78
2021/11/03 12:38:10;;;;;;;6.30;5.25;;;9.30;99.90;;;;;;5071641;28;20509;-78
2021/11/03 12:40:36;;;;;;;13.38;6.45;;;9.10;99.90;;;;;;5070282;28;20048;-78
2021/11/03 12:43:29;;;;;;;7.25;4.43;;;9.10;99.90;;;;;;5105291;28;20048;-78
2021/11/03 12:46:07;;;;;;;8.82;5.25;;;9.10;99.90;;;;;;5053131;28;20449;-78
2021/11/03 12:48:55;;;;;;;9.77;5.28;;;9.10;99.90;;;;;;5104359;28;20063;-78
2021/11/03 12:51:20;;;;;;;7.25;4.40;;;9.10;99.90;;;;;;5089437;28;20048;-76
2021/11/03 12:53:55;;;;;;;6.60;4.20;;;9.40;99.90;;;;;;5070449;28;20389;-77
2021/11/03 12:56:25;;;;;;;16.45;6.28;;;9.30;99.90;;;;;;5081388;28;20048;-76
2021/11/03 12:58:56;;;;;;;8.60;4.55;;;9.40;99.90;;;;;;5109818;27;20052;-77
2021/11/03 13:01:30;;;;;;;13.85;5.72;;;9.40;99.90;;;;;;5068319;28;20102;-77
2021/11/03 13:04:17;;;;;;;8.85;5.90;;;9.40;99.90;;;;;;5084751;28;20087;-77
2021/11/03 13:06:58;;;;;;;7.38;5.13;;;9.30;99.90;;;;;;5067839;28;20043;-78
2021/11/03 13:09:36;;;;;;;8.35;5.88;;;9.10;99.90;;;;;;5070565;28;20060;-78
2021/11/03 13:12:07;;;;;;;6.65;4.10;;;9.00;99.90;;;;;;5093209;28;20053;-78
2021/11/03 13:14:34;;;;;;;6.80;5.65;;;8.90;99.90;;;;;;5068671;28;20059;-77